sensor_id;sensor_type;location;lat;lon;timestamp;pressure;altitude;pressure_sealevel;temperature;humidity
19797;BME280;10058;57.654;12.044;2023-04-03T00:01:13;102995.38;;;0.38;100.00
19797;BME280;10058;57.654;12.044;2023-04-03T00:03:39;102998.78;;;0.46;100.00
19797;BME280;10058;57.654;12.044;2023-04-03T00:06:06;102995.16;;;0.61;100.00
19797;BME280;10058;57.654;12.044;2023-04-03T00:08:33;102997.91;;;0.62;100.00
19797;BME280;10058;57.654;12.044;2023-04-03T00:10:58;102999.44;;;0.60;100.00
19797;BME280;10058;57.654;12.044;2023-04-03T00:13:24;102999.00;;;0.64;100.00
19797;BME280;10058;57.654;12.044;2023-04-03T00:15:50;102999.47;;;0.69;100.00
19797;BME280;10058;57.654;12.044;2023-04-03T00:18:15;102995.03;;;0.77;100.00
19797;BME280;10058;57.654;12.044;2023-04-03T00:20:40;102990.91;;;0.79;100.00
19797;BME280;10058;57.654;12.044;2023-04-03T00:23:06;102997.63;;;0.77;100.00
19797;BME280;10058;57.654;12.044;2023-04-03T00:25:31;103002.19;;;0.70;100.00
19797;BME280;10058;57.654;12.044;2023-04-03T00:27:56;103003.44;;;0.65;100.00
19797;BME280;10058;57.654;12.044;2023-04-03T00:30:22;103005.41;;;0.59;100.00
19797;BME280;10058;57.654;12.044;2023-04-03T00:32:47;103005.22;;;0.58;100.00
19797;BME280;10058;57.654;12.044;2023-04-03T00:35:13;103002.19;;;0.62;100.00
19797;BME280;10058;57.654;12.044;2023-04-03T00:37:40;103006.78;;;0.64;100.00
19797;BME280;10058;57.654;12.044;2023-04-03T00:40:06;103007.88;;;0.66;100.00
19797;BME280;10058;57.654;12.044;2023-04-03T00:42:31;103012.63;;;0.70;100.00
19797;BME280;10058;57.654;12.044;2023-04-03T00:47:21;103017.22;;;0.64;100.00
19797;BME280;10058;57.654;12.044;2023-04-03T00:49:47;103018.56;;;0.61;100.00
19797;BME280;10058;57.654;12.044;2023-04-03T00:52:16;103023.34;;;0.65;100.00
19797;BME280;10058;57.654;12.044;2023-04-03T00:54:42;103024.25;;;0.65;100.00
19797;BME280;10058;57.654;12.044;2023-04-03T00:57:08;103030.38;;;0.66;100.00
19797;BME280;10058;57.654;12.044;2023-04-03T00:59:36;103023.28;;;0.56;100.00
19797;BME280;10058;57.654;12.044;2023-04-03T01:02:05;103021.28;;;0.54;100.00
19797;BME280;10058;57.654;12.044;2023-04-03T01:04:31;103023.94;;;0.62;100.00
19797;BME280;10058;57.654;12.044;2023-04-03T01:06:57;103026.66;;;0.55;100.00
19797;BME280;10058;57.654;12.044;2023-04-03T01:09:24;103022.03;;;0.44;100.00
19797;BME280;10058;57.654;12.044;2023-04-03T01:11:50;103030.28;;;0.40;100.00
19797;BME280;10058;57.654;12.044;2023-04-03T01:14:15;103024.59;;;0.35;100.00
19797;BME280;10058;57.654;12.044;2023-04-03T01:16:40;103027.50;;;0.39;100.00
19797;BME280;10058;57.654;12.044;2023-04-03T01:19:10;103027.34;;;0.37;100.00
19797;BME280;10058;57.654;12.044;2023-04-03T01:21:52;103016.91;;;0.28;100.00
19797;BME280;10058;57.654;12.044;2023-04-03T01:24:30;103017.63;;;0.19;100.00
19797;BME280;10058;57.654;12.044;2023-04-03T01:26:57;103026.56;;;0.29;100.00
19797;BME280;10058;57.654;12.044;2023-04-03T01:29:22;103024.38;;;0.17;100.00
19797;BME280;10058;57.654;12.044;2023-04-03T01:31:51;103028.91;;;0.11;100.00
19797;BME280;10058;57.654;12.044;2023-04-03T01:34:16;103030.75;;;0.12;100.00
19797;BME280;10058;57.654;12.044;2023-04-03T01:36:42;103031.69;;;0.12;100.00
19797;BME280;10058;57.654;12.044;2023-04-03T01:39:07;103035.59;;;0.00;100.00
19797;BME280;10058;57.654;12.044;2023-04-03T01:41:33;103033.09;;;-0.07;100.00
19797;BME280;10058;57.654;12.044;2023-04-03T01:43:58;103041.59;;;-0.17;100.00
19797;BME280;10058;57.654;12.044;2023-04-03T01:46:23;103038.56;;;-0.13;100.00
19797;BME280;10058;57.654;12.044;2023-04-03T01:48:48;103037.03;;;-0.11;100.00
19797;BME280;10058;57.654;12.044;2023-04-03T01:51:14;103030.59;;;-0.14;100.00
19797;BME280;10058;57.654;12.044;2023-04-03T01:53:39;103035.16;;;-0.20;100.00
19797;BME280;10058;57.654;12.044;2023-04-03T01:56:04;102993.34;;;-0.55;100.00
19797;BME280;10058;57.654;12.044;2023-04-03T01:58:30;103042.47;;;-0.25;100.00
19797;BME280;10058;57.654;12.044;2023-04-03T02:00:55;103042.47;;;-0.25;100.00
19797;BME280;10058;57.654;12.044;2023-04-03T02:03:20;103045.47;;;-0.29;100.00
19797;BME280;10058;57.654;12.044;2023-04-03T02:05:46;103044.72;;;-0.28;100.00
19797;BME280;10058;57.654;12.044;2023-04-03T02:08:11;103039.94;;;-0.32;100.00
19797;BME280;10058;57.654;12.044;2023-04-03T02:10:36;103046.66;;;-0.34;100.00
19797;BME280;10058;57.654;12.044;2023-04-03T02:13:02;103047.13;;;-0.38;100.00
19797;BME280;10058;57.654;12.044;2023-04-03T02:15:27;103039.41;;;-0.45;100.00
19797;BME280;10058;57.654;12.044;2023-04-03T02:17:52;103045.94;;;-0.49;100.00
19797;BME280;10058;57.654;12.044;2023-04-03T02:20:17;103046.53;;;-0.51;100.00
19797;BME280;10058;57.654;12.044;2023-04-03T02:22:43;103049.78;;;-0.45;100.00
19797;BME280;10058;57.654;12.044;2023-04-03T02:25:08;103058.34;;;-0.46;100.00
19797;BME280;10058;57.654;12.044;2023-04-03T02:27:35;103061.28;;;-0.43;100.00
19797;BME280;10058;57.654;12.044;2023-04-03T02:30:00;103060.59;;;-0.49;100.00
19797;BME280;10058;57.654;12.044;2023-04-03T02:32:25;103061.06;;;-0.53;100.00
19797;BME280;10058;57.654;12.044;2023-04-03T02:34:50;103024.28;;;-0.81;100.00
19797;BME280;10058;57.654;12.044;2023-04-03T02:37:16;103067.41;;;-0.58;100.00
19797;BME280;10058;57.654;12.044;2023-04-03T02:39:41;103062.09;;;-0.51;100.00
19797;BME280;10058;57.654;12.044;2023-04-03T02:42:06;103066.88;;;-0.47;100.00
19797;BME280;10058;57.654;12.044;2023-04-03T02:44:32;103063.66;;;-0.53;100.00
19797;BME280;10058;57.654;12.044;2023-04-03T02:46:57;103067.25;;;-0.60;100.00
19797;BME280;10058;57.654;12.044;2023-04-03T02:49:22;103076.03;;;-0.66;100.00
19797;BME280;10058;57.654;12.044;2023-04-03T02:51:47;103078.16;;;-0.71;100.00
19797;BME280;10058;57.654;12.044;2023-04-03T02:54:13;103079.84;;;-0.72;100.00
19797;BME280;10058;57.654;12.044;2023-04-03T02:56:38;103074.72;;;-0.79;100.00
19797;BME280;10058;57.654;12.044;2023-04-03T02:59:04;103079.56;;;-0.82;100.00
19797;BME280;10058;57.654;12.044;2023-04-03T03:01:30;103084.09;;;-0.88;100.00
19797;BME280;10058;57.654;12.044;2023-04-03T03:03:57;103082.09;;;-0.90;100.00
19797;BME280;10058;57.654;12.044;2023-04-03T03:06:23;103080.75;;;-0.87;100.00
19797;BME280;10058;57.654;12.044;2023-04-03T03:08:48;103079.22;;;-0.85;100.00
19797;BME280;10058;57.654;12.044;2023-04-03T03:11:13;103075.88;;;-0.84;100.00
19797;BME280;10058;57.654;12.044;2023-04-03T03:13:38;103085.16;;;-0.86;100.00
19797;BME280;10058;57.654;12.044;2023-04-03T03:16:04;103087.09;;;-0.92;100.00
19797;BME280;10058;57.654;12.044;2023-04-03T03:18:29;103095.28;;;-0.96;100.00
19797;BME280;10058;57.654;12.044;2023-04-03T03:20:55;103087.91;;;-1.00;100.00
19797;BME280;10058;57.654;12.044;2023-04-03T03:23:21;103086.25;;;-0.99;100.00
19797;BME280;10058;57.654;12.044;2023-04-03T03:25:46;103086.50;;;-1.05;100.00
19797;BME280;10058;57.654;12.044;2023-04-03T03:28:11;103087.84;;;-1.09;100.00
19797;BME280;10058;57.654;12.044;2023-04-03T03:30:37;103092.75;;;-1.03;100.00
19797;BME280;10058;57.654;12.044;2023-04-03T03:33:02;103083.91;;;-1.05;100.00
19797;BME280;10058;57.654;12.044;2023-04-03T03:35:27;103084.56;;;-0.99;100.00
19797;BME280;10058;57.654;12.044;2023-04-03T03:37:53;103085.09;;;-0.94;100.00
19797;BME280;10058;57.654;12.044;2023-04-03T03:40:18;103080.66;;;-0.95;100.00
19797;BME280;10058;57.654;12.044;2023-04-03T03:42:43;103086.06;;;-1.01;100.00
19797;BME280;10058;57.654;12.044;2023-04-03T03:45:08;103087.25;;;-1.06;100.00
19797;BME280;10058;57.654;12.044;2023-04-03T03:47:34;103087.84;;;-1.09;100.00
19797;BME280;10058;57.654;12.044;2023-04-03T03:49:59;103082.31;;;-1.12;100.00
19797;BME280;10058;57.654;12.044;2023-04-03T03:52:24;103086.91;;;-1.09;100.00
19797;BME280;10058;57.654;12.044;2023-04-03T03:54:50;103088.81;;;-1.15;100.00
19797;BME280;10058;57.654;12.044;2023-04-03T03:57:15;103092.00;;;-1.18;100.00
19797;BME280;10058;57.654;12.044;2023-04-03T03:59:41;103091.06;;;-1.18;100.00
19797;BME280;10058;57.654;12.044;2023-04-03T04:02:06;103085.72;;;-1.20;100.00
19797;BME280;10058;57.654;12.044;2023-04-03T04:04:32;103088.00;;;-1.23;100.00
19797;BME280;10058;57.654;12.044;2023-04-03T04:06:57;103083.13;;;-1.20;100.00
19797;BME280;10058;57.654;12.044;2023-04-03T04:09:22;103088.91;;;-1.22;100.00
19797;BME280;10058;57.654;12.044;2023-04-03T04:11:47;103095.59;;;-1.24;100.00
19797;BME280;10058;57.654;12.044;2023-04-03T04:14:12;103086.22;;;-1.15;100.00
19797;BME280;10058;57.654;12.044;2023-04-03T04:16:38;103091.06;;;-1.18;100.00
19797;BME280;10058;57.654;12.044;2023-04-03T04:19:03;103095.94;;;-1.21;100.00
19797;BME280;10058;57.654;12.044;2023-04-03T04:21:28;103094.25;;;-1.21;100.00
19797;BME280;10058;57.654;12.044;2023-04-03T04:23:54;103094.09;;;-1.22;100.00
19797;BME280;10058;57.654;12.044;2023-04-03T04:26:19;103096.75;;;-1.29;100.00
19797;BME280;10058;57.654;12.044;2023-04-03T04:28:45;103106.06;;;-1.38;100.00
19797;BME280;10058;57.654;12.044;2023-04-03T04:31:10;103102.34;;;-1.33;100.00
19797;BME280;10058;57.654;12.044;2023-04-03T04:33:35;103108.22;;;-1.27;100.00
19797;BME280;10058;57.654;12.044;2023-04-03T04:36:00;103108.94;;;-1.21;100.00
19797;BME280;10058;57.654;12.044;2023-04-03T04:38:26;103104.78;;;-1.19;100.00
19797;BME280;10058;57.654;12.044;2023-04-03T04:40:51;103106.41;;;-1.13;100.00
19797;BME280;10058;57.654;12.044;2023-04-03T04:43:16;103108.25;;;-1.12;100.00
19797;BME280;10058;57.654;12.044;2023-04-03T04:45:41;103108.03;;;-1.06;100.00
19797;BME280;10058;57.654;12.044;2023-04-03T04:48:07;103111.38;;;-1.07;100.00
19797;BME280;10058;57.654;12.044;2023-04-03T04:50:32;103106.53;;;-1.04;100.00
19797;BME280;10058;57.654;12.044;2023-04-03T04:52:57;103112.19;;;-1.15;100.00
19797;BME280;10058;57.654;12.044;2023-04-03T04:55:22;103117.38;;;-1.15;100.00
19797;BME280;10058;57.654;12.044;2023-04-03T04:57:48;103112.59;;;-1.19;100.00
19797;BME280;10058;57.654;12.044;2023-04-03T05:00:13;103114.25;;;-1.20;100.00
19797;BME280;10058;57.654;12.044;2023-04-03T05:02:38;103113.00;;;-1.23;100.00
19797;BME280;10058;57.654;12.044;2023-04-03T05:05:03;103112.66;;;-1.26;100.00
19797;BME280;10058;57.654;12.044;2023-04-03T05:07:29;103113.09;;;-1.15;100.00
19797;BME280;10058;57.654;12.044;2023-04-03T05:09:54;103121.31;;;-1.03;100.00
19797;BME280;10058;57.654;12.044;2023-04-03T05:12:19;103117.91;;;-0.95;100.00
19797;BME280;10058;57.654;12.044;2023-04-03T05:14:45;103125.94;;;-0.85;100.00
19797;BME280;10058;57.654;12.044;2023-04-03T05:17:10;103118.34;;;-0.83;100.00
19797;BME280;10058;57.654;12.044;2023-04-03T05:19:35;103117.53;;;-0.75;100.00
19797;BME280;10058;57.654;12.044;2023-04-03T05:22:00;103117.09;;;-0.55;100.00
19797;BME280;10058;57.654;12.044;2023-04-03T05:24:25;103111.31;;;-0.37;100.00
19797;BME280;10058;57.654;12.044;2023-04-03T05:26:51;103106.47;;;-0.10;100.00
19797;BME280;10058;57.654;12.044;2023-04-03T05:29:16;103112.34;;;-0.04;100.00
19797;BME280;10058;57.654;12.044;2023-04-03T05:31:41;103111.47;;;0.05;100.00
19797;BME280;10058;57.654;12.044;2023-04-03T05:34:06;103109.81;;;0.29;100.00
19797;BME280;10058;57.654;12.044;2023-04-03T05:36:31;103092.97;;;1.00;100.00
19797;BME280;10058;57.654;12.044;2023-04-03T05:38:57;103092.53;;;2.17;100.00
19797;BME280;10058;57.654;12.044;2023-04-03T05:41:22;103088.75;;;1.70;100.00
19797;BME280;10058;57.654;12.044;2023-04-03T05:43:47;103089.16;;;1.23;100.00
19797;BME280;10058;57.654;12.044;2023-04-03T05:46:14;103098.22;;;1.26;100.00
19797;BME280;10058;57.654;12.044;2023-04-03T05:48:40;103080.69;;;2.73;100.00
19797;BME280;10058;57.654;12.044;2023-04-03T05:51:05;103061.69;;;5.24;100.00
19797;BME280;10058;57.654;12.044;2023-04-03T05:53:31;103040.97;;;8.24;100.00
19797;BME280;10058;57.654;12.044;2023-04-03T05:55:57;103030.00;;;9.67;100.00
19797;BME280;10058;57.654;12.044;2023-04-03T05:58:22;103028.94;;;10.05;100.00
19797;BME280;10058;57.654;12.044;2023-04-03T06:00:47;103021.38;;;11.06;100.00
19797;BME280;10058;57.654;12.044;2023-04-03T06:03:13;103008.25;;;11.81;100.00
19797;BME280;10058;57.654;12.044;2023-04-03T06:05:38;103013.66;;;12.14;100.00
19797;BME280;10058;57.654;12.044;2023-04-03T06:08:03;103021.53;;;10.95;99.00
19797;BME280;10058;57.654;12.044;2023-04-03T06:10:29;103044.53;;;7.66;100.00
19797;BME280;10058;57.654;12.044;2023-04-03T06:12:54;103056.56;;;5.06;100.00
19797;BME280;10058;57.654;12.044;2023-04-03T06:15:19;103074.94;;;3.89;100.00
19797;BME280;10058;57.654;12.044;2023-04-03T06:17:45;103080.91;;;3.59;100.00
19797;BME280;10058;57.654;12.044;2023-04-03T06:20:10;103080.94;;;3.31;100.00
19797;BME280;10058;57.654;12.044;2023-04-03T06:22:36;103078.69;;;3.26;100.00
19797;BME280;10058;57.654;12.044;2023-04-03T06:25:02;103090.28;;;3.38;100.00
19797;BME280;10058;57.654;12.044;2023-04-03T06:27:27;103085.69;;;3.35;100.00
19797;BME280;10058;57.654;12.044;2023-04-03T06:29:52;103085.69;;;3.35;100.00
19797;BME280;10058;57.654;12.044;2023-04-03T06:32:17;103079.19;;;3.40;100.00
19797;BME280;10058;57.654;12.044;2023-04-03T06:34:43;103092.16;;;3.30;100.00
19797;BME280;10058;57.654;12.044;2023-04-03T06:37:18;103079.88;;;3.48;100.00
19797;BME280;10058;57.654;12.044;2023-04-03T06:39:44;103084.72;;;3.43;100.00
19797;BME280;10058;57.654;12.044;2023-04-03T06:42:10;103084.72;;;3.43;100.00
19797;BME280;10058;57.654;12.044;2023-04-03T06:44:35;103081.31;;;3.44;100.00
19797;BME280;10058;57.654;12.044;2023-04-03T06:47:01;103090.63;;;3.32;100.00
19797;BME280;10058;57.654;12.044;2023-04-03T06:49:26;103101.47;;;3.18;100.00
19797;BME280;10058;57.654;12.044;2023-04-03T06:51:51;103092.81;;;3.46;100.00
19797;BME280;10058;57.654;12.044;2023-04-03T06:54:16;103095.03;;;3.61;100.00
19797;BME280;10058;57.654;12.044;2023-04-03T06:56:41;103094.03;;;3.69;100.00
19797;BME280;10058;57.654;12.044;2023-04-03T06:59:07;103088.25;;;3.63;100.00
19797;BME280;10058;57.654;12.044;2023-04-03T07:01:32;103085.53;;;3.90;100.00
19797;BME280;10058;57.654;12.044;2023-04-03T07:03:57;103092.41;;;3.98;100.00
19797;BME280;10058;57.654;12.044;2023-04-03T07:06:22;103090.13;;;4.22;100.00
19797;BME280;10058;57.654;12.044;2023-04-03T07:08:48;103093.81;;;4.24;100.00
19797;BME280;10058;57.654;12.044;2023-04-03T07:11:14;103090.50;;;4.45;100.00
19797;BME280;10058;57.654;12.044;2023-04-03T07:13:39;103093.63;;;4.41;100.00
19797;BME280;10058;57.654;12.044;2023-04-03T07:16:05;103097.56;;;4.17;100.00
19797;BME280;10058;57.654;12.044;2023-04-03T07:18:31;103096.28;;;4.22;100.00
19797;BME280;10058;57.654;12.044;2023-04-03T07:20:56;103092.88;;;4.52;100.00
19797;BME280;10058;57.654;12.044;2023-04-03T07:23:22;103090.31;;;4.33;100.00
19797;BME280;10058;57.654;12.044;2023-04-03T07:25:48;103105.31;;;4.15;100.00
19797;BME280;10058;57.654;12.044;2023-04-03T07:28:14;103100.63;;;4.22;100.00
19797;BME280;10058;57.654;12.044;2023-04-03T07:30:46;103100.69;;;4.32;100.00
19797;BME280;10058;57.654;12.044;2023-04-03T07:33:12;103103.00;;;4.29;100.00
19797;BME280;10058;57.654;12.044;2023-04-03T07:35:38;103096.66;;;4.16;100.00
19797;BME280;10058;57.654;12.044;2023-04-03T07:38:03;103092.16;;;4.34;100.00
19797;BME280;10058;57.654;12.044;2023-04-03T07:40:28;103098.09;;;4.42;100.00
19797;BME280;10058;57.654;12.044;2023-04-03T07:42:53;103086.41;;;4.77;100.00
19797;BME280;10058;57.654;12.044;2023-04-03T07:45:19;103085.34;;;4.85;100.00
19797;BME280;10058;57.654;12.044;2023-04-03T07:47:45;103090.34;;;4.82;100.00
19797;BME280;10058;57.654;12.044;2023-04-03T07:50:10;103082.22;;;4.89;100.00
19797;BME280;10058;57.654;12.044;2023-04-03T07:52:35;103073.72;;;5.02;100.00
19797;BME280;10058;57.654;12.044;2023-04-03T07:55:01;103088.66;;;4.93;100.00
19797;BME280;10058;57.654;12.044;2023-04-03T07:57:26;103082.63;;;4.94;100.00
19797;BME280;10058;57.654;12.044;2023-04-03T07:59:51;103087.75;;;4.93;100.00
19797;BME280;10058;57.654;12.044;2023-04-03T08:02:16;103090.53;;;5.14;100.00
19797;BME280;10058;57.654;12.044;2023-04-03T08:04:41;103083.03;;;5.09;100.00
19797;BME280;10058;57.654;12.044;2023-04-03T08:07:06;103085.94;;;5.12;100.00
19797;BME280;10058;57.654;12.044;2023-04-03T08:09:32;103084.88;;;5.40;100.00
19797;BME280;10058;57.654;12.044;2023-04-03T08:11:57;103083.81;;;5.69;100.00
19797;BME280;10058;57.654;12.044;2023-04-03T08:14:22;103087.31;;;5.79;100.00
19797;BME280;10058;57.654;12.044;2023-04-03T08:16:48;103085.09;;;5.74;100.00
19797;BME280;10058;57.654;12.044;2023-04-03T08:19:14;103087.59;;;5.82;100.00
19797;BME280;10058;57.654;12.044;2023-04-03T08:21:40;103080.56;;;6.13;100.00
19797;BME280;10058;57.654;12.044;2023-04-03T08:24:06;103079.78;;;6.14;100.00
19797;BME280;10058;57.654;12.044;2023-04-03T08:26:32;103075.63;;;5.96;99.28
19797;BME280;10058;57.654;12.044;2023-04-03T08:28:57;103074.00;;;6.18;100.00
19797;BME280;10058;57.654;12.044;2023-04-03T08:31:22;103069.03;;;6.11;97.28
19797;BME280;10058;57.654;12.044;2023-04-03T08:33:48;103070.72;;;6.11;99.76
19797;BME280;10058;57.654;12.044;2023-04-03T08:36:24;103065.66;;;6.34;100.00
19797;BME280;10058;57.654;12.044;2023-04-03T08:38:50;103077.47;;;6.39;97.65
19797;BME280;10058;57.654;12.044;2023-04-03T08:41:27;103062.91;;;6.33;98.92
19797;BME280;10058;57.654;12.044;2023-04-03T08:43:57;103062.81;;;6.53;96.99
19797;BME280;10058;57.654;12.044;2023-04-03T08:49:10;103055.38;;;7.03;98.35
19797;BME280;10058;57.654;12.044;2023-04-03T08:51:40;103062.19;;;6.67;94.90
19797;BME280;10058;57.654;12.044;2023-04-03T08:54:13;103066.38;;;6.75;96.42
19797;BME280;10058;57.654;12.044;2023-04-03T08:56:40;103057.25;;;6.93;96.23
19797;BME280;10058;57.654;12.044;2023-04-03T08:59:09;103055.47;;;6.92;95.49
19797;BME280;10058;57.654;12.044;2023-04-03T09:01:36;103064.94;;;6.69;96.33
19797;BME280;10058;57.654;12.044;2023-04-03T09:04:05;103060.84;;;6.72;94.19
19797;BME280;10058;57.654;12.044;2023-04-03T09:06:34;103057.22;;;6.60;94.77
19797;BME280;10058;57.654;12.044;2023-04-03T09:09:14;103047.59;;;6.71;94.62
19797;BME280;10058;57.654;12.044;2023-04-03T09:14:26;103050.66;;;6.98;93.21
19797;BME280;10058;57.654;12.044;2023-04-03T09:17:00;103039.22;;;6.98;94.47
19797;BME280;10058;57.654;12.044;2023-04-03T09:22:13;103051.16;;;7.05;93.09
19797;BME280;10058;57.654;12.044;2023-04-03T09:24:41;103046.84;;;6.83;94.04
19797;BME280;10058;57.654;12.044;2023-04-03T09:27:07;103041.28;;;6.90;94.31
19797;BME280;10058;57.654;12.044;2023-04-03T09:29:35;103045.94;;;6.94;94.78
19797;BME280;10058;57.654;12.044;2023-04-03T09:32:09;103048.59;;;6.94;95.02
19797;BME280;10058;57.654;12.044;2023-04-03T09:34:37;103042.53;;;6.95;91.11
19797;BME280;10058;57.654;12.044;2023-04-03T09:37:03;103033.19;;;7.44;94.17
19797;BME280;10058;57.654;12.044;2023-04-03T09:39:31;103022.22;;;7.61;95.56
19797;BME280;10058;57.654;12.044;2023-04-03T09:42:05;103027.34;;;7.37;95.56
19797;BME280;10058;57.654;12.044;2023-04-03T09:46:56;103022.56;;;7.54;92.54
19797;BME280;10058;57.654;12.044;2023-04-03T09:49:21;103020.13;;;7.34;93.58
19797;BME280;10058;57.654;12.044;2023-04-03T09:51:46;103019.19;;;7.22;91.23
19797;BME280;10058;57.654;12.044;2023-04-03T09:56:55;103031.78;;;7.26;95.96
19797;BME280;10058;57.654;12.044;2023-04-03T09:59:23;103024.09;;;7.29;99.40
19797;BME280;10058;57.654;12.044;2023-04-03T10:01:59;103017.16;;;7.64;97.25
19797;BME280;10058;57.654;12.044;2023-04-03T10:04:24;103013.03;;;7.80;93.88
19797;BME280;10058;57.654;12.044;2023-04-03T10:06:51;103008.69;;;7.80;92.20
19797;BME280;10058;57.654;12.044;2023-04-03T10:11:57;103008.69;;;7.45;94.24
19797;BME280;10058;57.654;12.044;2023-04-03T10:14:24;103009.06;;;7.73;93.67
19797;BME280;10058;57.654;12.044;2023-04-03T10:16:54;103003.44;;;7.68;92.86
19797;BME280;10058;57.654;12.044;2023-04-03T10:19:32;102996.09;;;7.88;95.69
19797;BME280;10058;57.654;12.044;2023-04-03T10:27:00;102990.03;;;8.49;94.37
19797;BME280;10058;57.654;12.044;2023-04-03T10:29:49;102985.94;;;8.41;96.47
19797;BME280;10058;57.654;12.044;2023-04-03T10:35:02;102991.72;;;8.00;92.45
19797;BME280;10058;57.654;12.044;2023-04-03T10:38:30;102974.78;;;8.08;93.44
19797;BME280;10058;57.654;12.044;2023-04-03T10:40:28;102974.78;;;8.08;90.56
19797;BME280;10058;57.654;12.044;2023-04-03T10:45:26;102972.06;;;7.95;91.09
19797;BME280;10058;57.654;12.044;2023-04-03T10:52:55;102956.66;;;8.24;88.81
19797;BME280;10058;57.654;12.044;2023-04-03T10:55:33;102958.22;;;8.46;90.04
19797;BME280;10058;57.654;12.044;2023-04-03T10:57:59;102949.91;;;8.53;91.84
19797;BME280;10058;57.654;12.044;2023-04-03T11:00:36;102944.44;;;8.75;91.24
19797;BME280;10058;57.654;12.044;2023-04-03T11:03:03;102944.09;;;8.70;89.79
19797;BME280;10058;57.654;12.044;2023-04-03T11:05:39;102939.25;;;8.76;89.80
19797;BME280;10058;57.654;12.044;2023-04-03T11:10:51;102937.72;;;8.42;89.10
19797;BME280;10058;57.654;12.044;2023-04-03T11:13:26;102934.66;;;8.60;89.27
19797;BME280;10058;57.654;12.044;2023-04-03T11:15:53;102930.34;;;8.74;87.76
19797;BME280;10058;57.654;12.044;2023-04-03T11:23:49;102927.50;;;8.84;90.06
19797;BME280;10058;57.654;12.044;2023-04-03T11:28:41;102923.78;;;8.56;87.34
19797;BME280;10058;57.654;12.044;2023-04-03T11:36:24;102914.44;;;8.48;86.13
19797;BME280;10058;57.654;12.044;2023-04-03T11:38:51;102913.22;;;8.56;86.96
19797;BME280;10058;57.654;12.044;2023-04-03T11:41:23;102902.56;;;8.79;86.50
19797;BME280;10058;57.654;12.044;2023-04-03T11:46:21;102898.13;;;8.91;87.30
19797;BME280;10058;57.654;12.044;2023-04-03T11:48:47;102896.13;;;9.14;86.55
19797;BME280;10058;57.654;12.044;2023-04-03T11:53:40;102885.38;;;9.50;90.45
19797;BME280;10058;57.654;12.044;2023-04-03T12:01:46;102872.78;;;9.46;89.60
19797;BME280;10058;57.654;12.044;2023-04-03T12:04:12;102884.34;;;9.08;87.10
19797;BME280;10058;57.654;12.044;2023-04-03T12:09:21;102873.09;;;9.11;86.63
19797;BME280;10058;57.654;12.044;2023-04-03T12:11:47;102866.34;;;9.56;91.44
19797;BME280;10058;57.654;12.044;2023-04-03T12:14:14;102859.72;;;9.34;91.25
19797;BME280;10058;57.654;12.044;2023-04-03T12:26:46;102851.44;;;9.56;96.77
19797;BME280;10058;57.654;12.044;2023-04-03T12:29:27;102843.09;;;9.63;93.81
19797;BME280;10058;57.654;12.044;2023-04-03T12:34:24;102840.53;;;10.06;96.67
19797;BME280;10058;57.654;12.044;2023-04-03T12:36:59;102842.25;;;9.77;90.90
19797;BME280;10058;57.654;12.044;2023-04-03T12:39:47;102836.00;;;9.62;93.38
19797;BME280;10058;57.654;12.044;2023-04-03T12:44:43;102837.81;;;9.63;93.35
19797;BME280;10058;57.654;12.044;2023-04-03T12:47:27;102835.13;;;9.09;91.65
19797;BME280;10058;57.654;12.044;2023-04-03T12:49:53;102830.50;;;9.59;95.11
19797;BME280;10058;57.654;12.044;2023-04-03T12:54:51;102828.25;;;9.78;94.15
19797;BME280;10058;57.654;12.044;2023-04-03T12:57:26;102833.75;;;9.55;91.87
19797;BME280;10058;57.654;12.044;2023-04-03T12:59:52;102819.69;;;9.83;95.99
19797;BME280;10058;57.654;12.044;2023-04-03T13:02:28;102804.59;;;9.95;95.35
19797;BME280;10058;57.654;12.044;2023-04-03T13:04:56;102800.63;;;9.73;91.58
19797;BME280;10058;57.654;12.044;2023-04-03T13:07:24;102802.63;;;9.77;92.71
19797;BME280;10058;57.654;12.044;2023-04-03T13:12:35;102800.41;;;9.84;92.17
19797;BME280;10058;57.654;12.044;2023-04-03T13:15:52;102798.44;;;9.53;91.31
19797;BME280;10058;57.654;12.044;2023-04-03T13:17:58;102804.09;;;10.00;96.03
19797;BME280;10058;57.654;12.044;2023-04-03T13:22:53;102805.88;;;9.87;91.64
19797;BME280;10058;57.654;12.044;2023-04-03T13:25:20;102794.41;;;9.73;93.64
19797;BME280;10058;57.654;12.044;2023-04-03T13:27:45;102797.78;;;9.70;92.98
19797;BME280;10058;57.654;12.044;2023-04-03T13:32:55;102789.53;;;9.51;91.34
19797;BME280;10058;57.654;12.044;2023-04-03T13:37:57;102786.38;;;9.85;90.46
19797;BME280;10058;57.654;12.044;2023-04-03T13:40:22;102775.00;;;9.72;94.61
19797;BME280;10058;57.654;12.044;2023-04-03T13:42:58;102779.25;;;9.84;92.04
19797;BME280;10058;57.654;12.044;2023-04-03T13:45:24;102773.53;;;9.91;89.50
19797;BME280;10058;57.654;12.044;2023-04-03T13:47:53;102759.16;;;9.72;91.56
19797;BME280;10058;57.654;12.044;2023-04-03T13:50:21;102753.47;;;9.52;91.77
19797;BME280;10058;57.654;12.044;2023-04-03T13:55:21;102759.63;;;9.65;91.28
19797;BME280;10058;57.654;12.044;2023-04-03T13:57:55;102758.34;;;9.87;92.52
19797;BME280;10058;57.654;12.044;2023-04-03T14:02:46;102754.09;;;9.75;90.99
19797;BME280;10058;57.654;12.044;2023-04-03T14:05:12;102746.03;;;9.59;90.79
19797;BME280;10058;57.654;12.044;2023-04-03T14:07:37;102747.34;;;9.66;93.36
19797;BME280;10058;57.654;12.044;2023-04-03T14:10:03;102748.31;;;9.40;91.56
19797;BME280;10058;57.654;12.044;2023-04-03T14:12:33;102752.56;;;9.51;91.41
19797;BME280;10058;57.654;12.044;2023-04-03T14:15:03;102736.84;;;9.95;93.97